createdAt,value
2022-09-04T00:01:30.871Z,102544.72
2022-09-04T00:04:24.736Z,102541.13
2022-09-04T00:07:19.325Z,102541.19
2022-09-04T00:10:11.966Z,102543.91
2022-09-04T00:13:07.009Z,102546.63
2022-09-04T00:15:50.118Z,102539.59
2022-09-04T00:18:34.191Z,102544.06
2022-09-04T00:21:21.659Z,102544.09
2022-09-04T00:24:05.326Z,102541.47
2022-09-04T00:26:50.342Z,102537.09
2022-09-04T00:29:45.655Z,102538.91
2022-09-04T00:32:39.506Z,102534.56
2022-09-04T00:35:18.959Z,102532.91
2022-09-04T00:37:56.526Z,102533.81
2022-09-04T00:40:44.790Z,102542.69
2022-09-04T00:43:33.778Z,102542.69
2022-09-04T00:46:34.282Z,102546.22
2022-09-04T00:49:29.747Z,102534.75
2022-09-04T00:52:36.627Z,102537.44
2022-09-04T00:55:33.054Z,102540.13
2022-09-04T00:58:18.984Z,102538.41
2022-09-04T01:00:57.032Z,102536.66
2022-09-04T01:03:27.555Z,102544.69
2022-09-04T01:06:28.114Z,102540.28
2022-09-04T01:09:01.352Z,102546.53
2022-09-04T01:12:00.261Z,102546.56
2022-09-04T01:14:49.092Z,102551.00
2022-09-04T01:17:40.499Z,102554.59
2022-09-04T01:20:44.405Z,102551.06
2022-09-04T01:23:48.266Z,102554.63
2022-09-04T01:26:38.162Z,102555.50
2022-09-04T01:29:10.456Z,102553.72
2022-09-04T01:32:05.354Z,102548.47
2022-09-04T01:34:45.399Z,102553.78
2022-09-04T01:37:23.913Z,102556.44
2022-09-04T01:40:11.506Z,102559.13
2022-09-04T01:42:55.167Z,102550.31
2022-09-04T01:45:50.670Z,102558.31
2022-09-04T01:48:25.846Z,102558.31
2022-09-04T01:50:58.806Z,102561.88
2022-09-04T01:53:27.954Z,102560.06
2022-09-04T01:56:12.933Z,102560.97
2022-09-04T01:58:56.247Z,102562.75
2022-09-04T02:01:39.435Z,102553.03
2022-09-04T02:04:21.958Z,102559.28
2022-09-04T02:06:54.322Z,102559.28
2022-09-04T02:09:48.914Z,102560.19
2022-09-04T02:12:35.966Z,102565.53
2022-09-04T02:15:12.922Z,102567.28
2022-09-04T02:17:58.895Z,102561.13
2022-09-04T02:20:28.365Z,102557.56
2022-09-04T02:23:11.816Z,102557.63
2022-09-04T02:26:03.574Z,102554.16
2022-09-04T02:28:36.027Z,102552.38
2022-09-04T02:31:39.621Z,102555.91
2022-09-04T02:34:17.974Z,102558.59
2022-09-04T02:37:06.786Z,102560.38
2022-09-04T02:39:56.297Z,102555.09
2022-09-04T02:43:07.368Z,102567.47
2022-09-04T02:45:58.480Z,102563.03
2022-09-04T02:48:52.293Z,102556.88
2022-09-04T02:51:37.616Z,102563.06
2022-09-04T02:54:31.667Z,102566.63
2022-09-04T02:56:58.742Z,102564.00
2022-09-04T02:59:50.067Z,102568.41
2022-09-04T03:02:30.486Z,102568.41
2022-09-04T03:05:09.585Z,102571.09
2022-09-04T03:07:42.803Z,102564.91
2022-09-04T03:10:18.258Z,102567.56
2022-09-04T03:13:20.359Z,102567.50
2022-09-04T03:16:04.521Z,102569.28
2022-09-04T03:18:49.890Z,102574.59
2022-09-04T03:21:39.134Z,102574.59
2022-09-04T03:24:13.807Z,102575.50
2022-09-04T03:26:45.591Z,102588.75
2022-09-04T03:29:16.215Z,102583.47
2022-09-04T03:31:55.857Z,102590.53
2022-09-04T03:34:50.050Z,102597.59
2022-09-04T03:37:39.650Z,102585.28
2022-09-04T03:40:26.150Z,102593.25
2022-09-04T03:42:58.442Z,102585.28
2022-09-04T03:45:49.753Z,102580.84
2022-09-04T03:48:28.626Z,102587.00
2022-09-04T03:51:14.199Z,102594.09
2022-09-04T03:53:45.662Z,102590.53
2022-09-04T03:56:21.534Z,102589.66
2022-09-04T03:59:03.287Z,102591.38
2022-09-04T04:01:51.566Z,102596.69
2022-09-04T04:04:49.052Z,102603.75
2022-09-04T04:07:43.050Z,102607.28
2022-09-04T04:10:41.099Z,102619.63
2022-09-04T04:13:27.138Z,102621.44
2022-09-04T04:16:08.858Z,102618.81
2022-09-04T04:18:56.622Z,102613.50
2022-09-04T04:21:38.797Z,102609.06
2022-09-04T04:24:17.890Z,102617.91
2022-09-04T04:26:59.849Z,102615.22
2022-09-04T04:29:55.082Z,102610.81
2022-09-04T04:32:30.774Z,102617.88
2022-09-04T04:35:28.163Z,102610.81
2022-09-04T04:38:19.474Z,102612.63
2022-09-04T04:41:17.709Z,102618.81
2022-09-04T04:44:03.032Z,102621.47
2022-09-04T04:46:48.400Z,102627.66
2022-09-04T04:49:44.790Z,102628.53
2022-09-04T04:52:31.890Z,102636.53
2022-09-04T04:55:22.915Z,102641.81
2022-09-04T04:57:55.562Z,102641.84
2022-09-04T05:00:40.202Z,102632.97
2022-09-04T05:03:32.434Z,102637.38
2022-09-04T05:06:10.075Z,102641.75
2022-09-04T05:08:44.727Z,102641.72
2022-09-04T05:11:17.390Z,102643.50
2022-09-04T05:14:05.258Z,102643.50
2022-09-04T05:16:54.882Z,102643.47
2022-09-04T05:19:29.862Z,102644.38
2022-09-04T05:22:09.814Z,102639.91
2022-09-04T05:24:45.949Z,102640.78
2022-09-04T05:27:20.637Z,102645.22
2022-09-04T05:29:51.648Z,102648.75
2022-09-04T05:32:22.946Z,102651.38
2022-09-04T05:35:16.429Z,102654.03
2022-09-04T05:38:20.688Z,102654.03
2022-09-04T05:41:07.554Z,102650.44
2022-09-04T05:43:57.779Z,102649.56
2022-09-04T05:47:05.699Z,102657.50
2022-09-04T05:49:46.792Z,102658.38
2022-09-04T05:52:27.094Z,102660.09
2022-09-04T05:55:19.266Z,102664.47
2022-09-04T05:57:59.673Z,102661.78
2022-09-04T06:00:36.411Z,102670.66
2022-09-04T06:03:09.260Z,102679.47
2022-09-04T06:05:59.134Z,102668.81
2022-09-04T06:08:29.011Z,102670.59
2022-09-04T06:11:07.850Z,102681.16
2022-09-04T06:13:51.687Z,102670.50
2022-09-04T06:16:45.644Z,102671.34
2022-09-04T06:19:29.078Z,102674.84
2022-09-04T06:22:10.447Z,102675.69
2022-09-04T06:25:15.987Z,102678.31
2022-09-04T06:28:03.867Z,102683.56
2022-09-04T06:30:49.636Z,102689.69
2022-09-04T06:33:19.120Z,102687.88
2022-09-04T06:36:07.237Z,102691.38
2022-09-04T06:38:48.614Z,102689.53
2022-09-04T06:41:15.154Z,102694.81
2022-09-04T06:44:03.296Z,102685.03
2022-09-04T06:47:06.494Z,102688.53
2022-09-04T06:49:57.007Z,102688.44
2022-09-04T06:52:30.841Z,102693.69
2022-09-04T06:55:29.028Z,102696.28
2022-09-04T06:58:05.446Z,102704.28
2022-09-04T07:01:08.927Z,102709.53
2022-09-04T07:03:52.971Z,102706.81
2022-09-04T07:06:30.095Z,102704.09
2022-09-04T07:09:30.846Z,102718.19
2022-09-04T07:12:34.746Z,102716.34
2022-09-04T07:15:25.991Z,102715.38
2022-09-04T07:18:30.243Z,102721.53
2022-09-04T07:21:13.205Z,102714.41
2022-09-04T07:23:50.844Z,102723.25
2022-09-04T07:26:28.435Z,102717.03
2022-09-04T07:29:31.762Z,102715.25
2022-09-04T07:32:43.121Z,102724.06
2022-09-04T07:35:51.080Z,102727.63
2022-09-04T07:38:32.735Z,102731.13
2022-09-04T07:41:10.659Z,102743.53
2022-09-04T07:43:54.684Z,102736.38
2022-09-04T07:46:33.559Z,102737.19
2022-09-04T07:49:29.996Z,102740.66
2022-09-04T07:52:14.541Z,102740.59
2022-09-04T07:55:05.553Z,102740.38
2022-09-04T07:58:03.367Z,102744.66
2022-09-04T08:00:41.455Z,102748.03
2022-09-04T08:03:53.868Z,102748.59
2022-09-04T08:06:52.975Z,102750.00
2022-09-04T08:09:40.634Z,102748.34
2022-09-04T08:12:16.013Z,102752.22
2022-09-04T08:14:55.606Z,102750.81
2022-09-04T08:17:43.352Z,102746.56
2022-09-04T08:20:19.048Z,102754.50
2022-09-04T08:23:13.288Z,102760.94
2022-09-04T08:26:01.296Z,102757.94
2022-09-04T08:29:05.182Z,102747.63
2022-09-04T08:31:47.251Z,102745.09
2022-09-04T08:34:46.194Z,102749.41
2022-09-04T08:37:54.116Z,102754.13
2022-09-04T08:40:58.527Z,102755.03
2022-09-04T08:43:45.248Z,102759.31
2022-09-04T08:46:40.056Z,102754.09
2022-09-04T08:49:26.336Z,102762.16
2022-09-04T08:52:31.485Z,102762.47
2022-09-04T08:55:19.940Z,102756.56
2022-09-04T08:58:20.623Z,102750.38
2022-09-04T09:01:15.018Z,102755.81
2022-09-04T09:04:06.904Z,102760.34
2022-09-04T09:07:10.354Z,102749.59
2022-09-04T09:09:55.399Z,102759.31
2022-09-04T09:12:56.531Z,102756.91
2022-09-04T09:15:51.776Z,102753.97
2022-09-04T09:18:21.005Z,102762.47
2022-09-04T09:21:06.509Z,102755.88
2022-09-04T09:23:54.767Z,102757.06
2022-09-04T09:26:28.266Z,102758.00
2022-09-04T09:29:00.914Z,102768.13
2022-09-04T09:31:52.335Z,102759.47
2022-09-04T09:34:54.785Z,102760.91
2022-09-04T09:37:46.187Z,102754.63
2022-09-04T09:40:36.434Z,102758.22
2022-09-04T09:43:46.447Z,102768.50
2022-09-04T09:46:34.078Z,102761.81
2022-09-04T09:49:03.604Z,102775.97
2022-09-04T09:52:17.847Z,102770.69
2022-09-04T09:55:11.571Z,102766.81
2022-09-04T09:58:15.806Z,102772.56
2022-09-04T10:01:25.132Z,102777.22
2022-09-04T10:04:11.765Z,102771.44
2022-09-04T10:07:14.659Z,102775.59
2022-09-04T10:10:02.567Z,102772.41
2022-09-04T10:12:32.071Z,102772.22
2022-09-04T10:15:07.606Z,102768.34
2022-09-04T10:18:14.382Z,102767.47
2022-09-04T10:21:10.487Z,102780.44
2022-09-04T10:23:54.146Z,102776.63
2022-09-04T10:26:35.884Z,102769.25
2022-09-04T10:29:14.715Z,102769.56
2022-09-04T10:32:02.737Z,102759.63
2022-09-04T10:35:00.344Z,102761.50
2022-09-04T10:37:42.007Z,102763.03
2022-09-04T10:40:37.614Z,102761.69
2022-09-04T10:43:44.790Z,102760.84
2022-09-04T10:46:26.395Z,102756.44
2022-09-04T10:49:30.534Z,102761.63
2022-09-04T10:52:00.346Z,102762.94
2022-09-04T10:54:44.250Z,102754.50
2022-09-04T10:57:28.372Z,102759.50
2022-09-04T11:00:11.476Z,102759.03
2022-09-04T11:02:56.854Z,102761.81
2022-09-04T11:06:02.509Z,102755.75
2022-09-04T11:08:44.091Z,102769.97
2022-09-04T11:11:40.737Z,102764.91
2022-09-04T11:14:25.537Z,102760.44
2022-09-04T11:16:59.368Z,102761.72
2022-09-04T11:19:34.891Z,102762.00
2022-09-04T11:22:34.990Z,102762.72
2022-09-04T11:25:19.527Z,102769.13
2022-09-04T11:28:07.946Z,102764.97
2022-09-04T11:30:48.531Z,102764.41
2022-09-04T11:33:24.951Z,102767.56
2022-09-04T11:36:25.681Z,102765.13
2022-09-04T11:39:18.112Z,102771.56
2022-09-04T11:41:50.918Z,102763.44
2022-09-04T11:45:00.490Z,102767.66
2022-09-04T11:48:06.163Z,102761.91
2022-09-04T11:50:56.469Z,102765.84
2022-09-04T11:54:04.506Z,102766.19
2022-09-04T11:56:55.363Z,102752.94
2022-09-04T11:59:38.190Z,102753.03
2022-09-04T12:02:25.886Z,102752.19
2022-09-04T12:05:16.107Z,102749.63
2022-09-04T12:08:23.172Z,102745.53
2022-09-04T12:10:49.901Z,102758.38
2022-09-04T12:13:56.075Z,102759.19
2022-09-04T12:16:33.091Z,102762.31
2022-09-04T12:19:09.476Z,102762.00
2022-09-04T12:22:00.931Z,102764.34
2022-09-04T12:24:27.540Z,102770.22
2022-09-04T12:27:12.452Z,102766.34
2022-09-04T12:30:10.293Z,102774.09
2022-09-04T12:32:55.678Z,102768.34
2022-09-04T12:36:00.669Z,102763.53
2022-09-04T12:39:11.845Z,102771.09
2022-09-04T12:41:56.850Z,102769.00
2022-09-04T12:44:36.051Z,102776.56
2022-09-04T12:47:26.385Z,102769.66
2022-09-04T12:50:18.014Z,102765.53
2022-09-04T12:53:05.134Z,102767.50
2022-09-04T12:55:45.733Z,102773.75
2022-09-04T12:58:44.567Z,102772.84
2022-09-04T13:01:43.659Z,102770.19
2022-09-04T13:04:27.354Z,102768.28
2022-09-04T13:07:24.338Z,102767.94
2022-09-04T13:09:53.245Z,102787.03
2022-09-04T13:12:47.831Z,102777.44
2022-09-04T13:15:38.583Z,102772.34
2022-09-04T13:18:25.338Z,102778.91
2022-09-04T13:21:00.098Z,102779.44
2022-09-04T13:23:46.855Z,102770.31
2022-09-04T13:26:13.521Z,102778.16
2022-09-04T13:29:16.179Z,102778.84
2022-09-04T13:32:24.724Z,102781.75
2022-09-04T13:35:09.403Z,102775.84
2022-09-04T13:38:25.530Z,102774.44
2022-09-04T13:41:13.562Z,102781.06
2022-09-04T13:43:56.040Z,102776.56
2022-09-04T13:46:33.261Z,102781.00
2022-09-04T13:49:05.430Z,102785.38
2022-09-04T13:51:43.141Z,102779.00
2022-09-04T13:54:34.397Z,102779.00
2022-09-04T13:57:08.341Z,102774.88
2022-09-04T13:59:35.598Z,102783.13
2022-09-04T14:02:06.953Z,102778.88
2022-09-04T14:04:44.089Z,102779.19
2022-09-04T14:07:18.824Z,102777.59
2022-09-04T14:09:49.429Z,102775.03
2022-09-04T14:12:54.069Z,102776.97
2022-09-04T14:16:01.942Z,102777.97
2022-09-04T14:18:55.724Z,102780.78
2022-09-04T14:21:37.743Z,102779.06
2022-09-04T14:24:15.165Z,102787.41
2022-09-04T14:26:48.498Z,102783.06
2022-09-04T14:29:22.355Z,102780.19
2022-09-04T14:32:10.732Z,102786.16
2022-09-04T14:34:51.267Z,102789.16
2022-09-04T14:37:59.347Z,102793.16
2022-09-04T14:40:45.947Z,102779.56
2022-09-04T14:43:41.519Z,102782.19
2022-09-04T14:46:28.570Z,102781.22
2022-09-04T14:49:21.507Z,102780.16
2022-09-04T14:51:52.451Z,102781.00
2022-09-04T14:54:30.683Z,102781.09
2022-09-04T14:57:04.684Z,102780.44
2022-09-04T14:59:41.452Z,102777.06
2022-09-04T15:02:14.382Z,102781.66
2022-09-04T15:04:48.637Z,102776.47
2022-09-04T15:07:29.262Z,102779.25
2022-09-04T15:10:26.704Z,102781.97
2022-09-04T15:13:33.082Z,102779.16
2022-09-04T15:16:16.094Z,102787.31
2022-09-04T15:18:55.616Z,102785.59
2022-09-04T15:21:50.765Z,102776.06
2022-09-04T15:24:26.576Z,102780.53
2022-09-04T15:27:20.119Z,102781.56
2022-09-04T15:30:02.225Z,102783.47
2022-09-04T15:32:36.637Z,102783.56
2022-09-04T15:35:11.705Z,102782.81
2022-09-04T15:37:38.445Z,102783.81
2022-09-04T15:40:12.269Z,102787.56
2022-09-04T15:42:43.353Z,102805.59
2022-09-04T15:45:23.226Z,102789.72
2022-09-04T15:48:27.441Z,102796.25
2022-09-04T15:51:16.247Z,102793.03
2022-09-04T15:54:00.535Z,102798.06
2022-09-04T15:56:35.409Z,102796.72
2022-09-04T15:59:14.948Z,102795.38
2022-09-04T16:02:19.300Z,102802.84
2022-09-04T16:05:10.655Z,102804.06
2022-09-04T16:08:05.504Z,102801.66
2022-09-04T16:10:57.485Z,102811.78
2022-09-04T16:13:27.105Z,102803.97
2022-09-04T16:16:04.203Z,102808.53
2022-09-04T16:18:49.325Z,102807.72
2022-09-04T16:21:43.154Z,102810.44
2022-09-04T16:24:19.905Z,102806.16
2022-09-04T16:26:55.453Z,102810.72
2022-09-04T16:29:41.412Z,102813.59
2022-09-04T16:32:10.834Z,102812.00
2022-09-04T16:35:03.504Z,102809.38
2022-09-04T16:37:45.730Z,102815.72
2022-09-04T16:40:37.643Z,102812.13
2022-09-04T16:43:34.146Z,102818.28
2022-09-04T16:46:14.678Z,102819.28
2022-09-04T16:48:49.669Z,102820.16
2022-09-04T16:51:40.959Z,102819.41
2022-09-04T16:54:30.838Z,102822.13
2022-09-04T16:57:13.048Z,102825.66
2022-09-04T17:00:17.671Z,102827.47
2022-09-04T17:03:01.163Z,102820.44
2022-09-04T17:05:45.939Z,102821.41
2022-09-04T17:08:21.486Z,102830.38
2022-09-04T17:10:59.423Z,102832.13
2022-09-04T17:13:38.011Z,102843.69
2022-09-04T17:16:15.361Z,102843.69
2022-09-04T17:18:53.575Z,102848.13
2022-09-04T17:29:00.261Z,102852.59
2022-09-04T17:29:08.802Z,102852.59
2022-09-04T17:29:17.347Z,102854.53
2022-09-04T17:31:17.447Z,102853.84
2022-09-04T17:40:38.752Z,102863.69
2022-09-04T17:40:39.386Z,102858.53
2022-09-04T17:40:56.467Z,102863.06
2022-09-04T17:43:30.123Z,102861.44
2022-09-04T17:46:12.731Z,102860.66
2022-09-04T17:48:44.074Z,102859.88
2022-09-04T17:51:35.051Z,102862.69
2022-09-04T17:54:10.192Z,102868.09
2022-09-04T17:56:53.079Z,102871.75
2022-09-04T17:59:45.547Z,102870.06
2022-09-04T18:02:20.974Z,102870.19
2022-09-04T18:05:00.553Z,102875.66
2022-09-04T18:08:08.466Z,102879.34
2022-09-04T18:10:33.483Z,102877.72
2022-09-04T18:13:48.690Z,102884.84
2022-09-04T18:17:12.203Z,102888.44
2022-09-04T18:19:46.384Z,102892.13
2022-09-04T18:22:31.889Z,102891.31
2022-09-04T18:25:21.703Z,102881.56
2022-09-04T18:28:12.354Z,102897.59
2022-09-04T18:37:12.603Z,102889.63
2022-09-04T18:37:19.633Z,102889.66
2022-09-04T18:37:21.952Z,102894.19
2022-09-04T18:39:58.921Z,102890.66
2022-09-04T18:50:23.025Z,102904.88
2022-09-04T18:50:41.009Z,102903.09
2022-09-04T18:50:50.302Z,102909.28
2022-09-04T18:51:31.348Z,102906.63
2022-09-04T18:54:10.969Z,102911.97
2022-09-04T18:56:47.912Z,102912.94
2022-09-04T18:59:18.446Z,102914.72
2022-09-04T19:02:02.348Z,102913.03
2022-09-04T19:04:41.573Z,102918.50
2022-09-04T19:07:31.867Z,102910.59
2022-09-04T19:10:03.854Z,102912.44
2022-09-04T19:12:47.390Z,102923.13
2022-09-04T19:15:55.903Z,102916.00
2022-09-04T19:18:26.791Z,102913.41
2022-09-04T19:21:15.677Z,102923.22
2022-09-04T19:23:45.479Z,102918.84
2022-09-04T19:26:30.539Z,102922.53
2022-09-04T19:29:27.029Z,102925.28
2022-09-04T19:32:18.645Z,102927.03
2022-09-04T19:34:52.930Z,102928.81
2022-09-04T19:43:08.909Z,102932.38
2022-09-04T19:46:03.819Z,102931.53
2022-09-04T19:46:19.375Z,102934.13
2022-09-04T19:47:39.536Z,102932.38
2022-09-04T19:53:19.282Z,102935.97
2022-09-04T19:53:41.115Z,102933.38
2022-09-04T19:56:56.604Z,102936.13
2022-09-04T19:59:34.762Z,102938.03
2022-09-04T20:02:31.302Z,102931.03
2022-09-04T20:05:04.719Z,102940.91
2022-09-04T20:07:44.495Z,102942.75
2022-09-04T20:10:17.447Z,102949.00
2022-09-04T20:13:12.570Z,102948.13
2022-09-04T20:15:51.858Z,102950.91
2022-09-04T20:18:25.396Z,102956.22
2022-09-04T20:21:05.496Z,102956.28
2022-09-04T20:23:56.214Z,102960.75
2022-09-04T20:26:38.383Z,102959.91
2022-09-04T20:29:19.153Z,102961.75
2022-09-04T20:31:56.570Z,102961.78
2022-09-04T20:34:43.503Z,102972.53
2022-09-04T20:37:37.698Z,102971.75
2022-09-04T20:40:14.042Z,102980.69
2022-09-04T20:42:56.289Z,102981.56
2022-09-04T20:52:43.579Z,102986.94
2022-09-04T20:52:50.938Z,102983.41
2022-09-04T20:52:55.061Z,102984.38
2022-09-04T20:55:10.339Z,102979.19
2022-09-04T21:02:23.134Z,102984.50
2022-09-04T21:03:18.413Z,102977.41
2022-09-04T21:03:57.290Z,102985.38
2022-09-04T21:06:30.314Z,102988.00
2022-09-04T21:09:17.995Z,102993.38
2022-09-04T21:11:53.866Z,102992.53
2022-09-04T21:14:36.547Z,102991.69
2022-09-04T21:17:47.378Z,102994.41
2022-09-04T21:20:46.119Z,103000.69
2022-09-04T21:23:46.493Z,103007.84
2022-09-04T21:26:48.143Z,103003.44
2022-09-04T21:29:38.344Z,102999.94
2022-09-04T21:32:42.245Z,102999.09
2022-09-04T21:35:24.457Z,103007.13
2022-09-04T21:38:15.265Z,103002.75
2022-09-04T21:41:06.371Z,103000.13
2022-09-04T21:43:40.231Z,103015.25
2022-09-04T21:46:28.856Z,103008.19
2022-09-04T21:49:35.680Z,103009.09
2022-09-04T21:52:16.923Z,103018.03
2022-09-04T21:56:54.807Z,103018.06
2022-09-04T22:02:37.499Z,103020.81
2022-09-04T22:02:41.875Z,103015.47
2022-09-04T22:04:19.856Z,103027.00
2022-09-04T22:11:20.771Z,103028.78
2022-09-04T22:13:44.165Z,103031.44
2022-09-04T22:13:46.009Z,103039.44
2022-09-04T22:15:58.499Z,103034.13
2022-09-04T22:18:51.129Z,103042.09
2022-09-04T22:21:35.608Z,103027.06
2022-09-04T22:24:20.523Z,103034.13
2022-09-04T22:26:55.999Z,103034.16
2022-09-04T22:30:01.127Z,103039.47
2022-09-04T22:33:03.389Z,103036.84
2022-09-04T22:35:59.100Z,103032.44
2022-09-04T22:38:40.748Z,103028.03
2022-09-04T22:41:26.448Z,103038.66
2022-09-04T22:44:25.344Z,103033.34
2022-09-04T22:47:22.257Z,103031.63
2022-09-04T22:50:06.970Z,103036.06
2022-09-04T22:52:48.549Z,103041.38
2022-09-04T22:55:40.404Z,103041.38
2022-09-04T22:58:43.711Z,103046.69
2022-09-04T23:01:36.634Z,103035.22
2022-09-04T23:04:33.870Z,103038.75
2022-09-04T23:12:06.456Z,103043.16
2022-09-04T23:13:46.413Z,103036.97
2022-09-04T23:14:07.563Z,103040.50
2022-09-04T23:17:08.889Z,103037.00
2022-09-04T23:26:30.876Z,103044.06
2022-09-04T23:26:47.728Z,103047.63
2022-09-04T23:26:49.808Z,103045.84
2022-09-04T23:29:41.055Z,103038.75
2022-09-04T23:32:43.982Z,103040.53
2022-09-04T23:35:39.703Z,103032.56
2022-09-04T23:38:06.305Z,103043.13
2022-09-04T23:40:35.595Z,103037.84
2022-09-04T23:43:17.086Z,103048.47
2022-09-04T23:46:13.285Z,103044.91
2022-09-04T23:48:55.208Z,103036.06
2022-09-04T23:51:43.628Z,103039.59
2022-09-04T23:54:35.100Z,103037.81
2022-09-04T23:57:26.721Z,103040.47
